Time;durP1;ratioP1;P1;durP2;ratioP2;P2;SDS_P1;SDS_P2;PMS_P1;PMS_P2;Temp;Humidity;BMP_temperature;BMP_pressure;BME280_temperature;BME280_humidity;BME280_pressure;Samples;Min_cycle;Max_cycle;Signal;HPM_P1;HPM_P2
2022/06/15 00:00:52;;;;;;;3.45;1.55;;;13.90;99.90;;;;;;5096979;28;20040;-79
2022/06/15 00:03:18;;;;;;;8.70;1.73;;;13.90;99.90;;;;;;5096923;28;20093;-79
2022/06/15 00:05:44;;;;;;;3.17;1.40;;;13.80;99.90;;;;;;5096594;28;20131;-80
2022/06/15 00:08:11;;;;;;;3.80;2.03;;;13.80;99.90;;;;;;5096786;28;20043;-79
2022/06/15 00:10:39;;;;;;;2.00;1.50;;;13.70;99.90;;;;;;5096766;28;20052;-79
2022/06/15 00:13:05;;;;;;;2.72;1.52;;;13.70;99.90;;;;;;5095747;28;20052;-79
2022/06/15 00:15:31;;;;;;;3.65;1.77;;;13.70;99.90;;;;;;5095079;28;20051;-79
2022/06/15 00:17:57;;;;;;;2.85;1.50;;;13.70;99.90;;;;;;5096616;28;20119;-79
2022/06/15 00:20:22;;;;;;;2.75;1.70;;;13.60;99.90;;;;;;5096594;28;20103;-79
2022/06/15 00:22:48;;;;;;;2.78;1.85;;;13.60;99.90;;;;;;5078432;28;20047;-79
2022/06/15 00:25:14;;;;;;;4.13;2.10;;;13.60;99.90;;;;;;5095314;28;20032;-79
2022/06/15 00:27:39;;;;;;;4.10;1.60;;;13.60;99.90;;;;;;5095366;28;20093;-80
2022/06/15 00:30:07;;;;;;;3.88;1.75;;;13.60;99.90;;;;;;5096459;28;20093;-80
2022/06/15 00:32:32;;;;;;;4.07;1.50;;;13.50;99.90;;;;;;5095511;28;20045;-79
2022/06/15 00:34:58;;;;;;;3.00;1.60;;;13.50;99.90;;;;;;5096262;28;20502;-79
2022/06/15 00:37:24;;;;;;;2.67;1.70;;;13.50;99.90;;;;;;5095470;28;20040;-79
2022/06/15 00:39:49;;;;;;;4.05;1.80;;;13.50;99.90;;;;;;5096189;28;20044;-79
2022/06/15 00:42:16;;;;;;;2.15;1.50;;;13.50;99.90;;;;;;5078401;28;20044;-79
2022/06/15 00:44:42;;;;;;;3.58;1.80;;;13.50;99.90;;;;;;5095742;28;20165;-78
2022/06/15 00:47:22;;;;;;;3.22;1.60;;;13.50;99.90;;;;;;5096478;28;20081;-79
2022/06/15 00:50:12;;;;;;;3.88;1.50;;;13.50;99.90;;;;;;5096139;28;20079;-79
2022/06/15 00:52:46;;;;;;;4.90;1.80;;;13.40;99.90;;;;;;5096358;28;20052;-79
2022/06/15 00:55:28;;;;;;;5.80;1.75;;;13.40;99.90;;;;;;5095910;28;20127;-79
2022/06/15 00:57:55;;;;;;;2.47;1.45;;;13.40;99.90;;;;;;5095999;28;20112;-79
2022/06/15 01:00:21;;;;;;;3.40;1.77;;;13.40;99.90;;;;;;5095171;28;20044;-78
2022/06/15 01:02:47;;;;;;;3.05;1.90;;;13.30;99.90;;;;;;5094300;28;20127;-79
2022/06/15 01:05:45;;;;;;;5.90;2.25;;;13.30;99.90;;;;;;5095719;28;20040;-79
2022/06/15 01:08:23;;;;;;;3.03;1.90;;;13.30;99.90;;;;;;5095636;28;20055;-79
2022/06/15 01:10:49;;;;;;;6.07;1.70;;;13.20;99.90;;;;;;5095649;28;20040;-79
2022/06/15 01:13:14;;;;;;;4.38;1.80;;;13.30;99.90;;;;;;5094634;28;20040;-79
2022/06/15 01:16:05;;;;;;;5.00;1.92;;;13.20;99.90;;;;;;5095204;28;20043;-79
2022/06/15 01:18:59;;;;;;;3.53;1.83;;;13.20;99.90;;;;;;5094183;28;20044;-79
2022/06/15 01:21:44;;;;;;;4.10;2.30;;;13.20;99.90;;;;;;5094379;28;20044;-79
2022/06/15 01:24:21;;;;;;;4.28;1.80;;;13.20;99.90;;;;;;5095691;28;20203;-79
2022/06/15 01:27:05;;;;;;;5.72;2.28;;;13.20;99.90;;;;;;5077519;28;20141;-79
2022/06/15 01:29:59;;;;;;;3.15;1.73;;;13.20;99.90;;;;;;5095292;28;20136;-79
2022/06/15 01:32:42;;;;;;;2.83;1.90;;;13.10;99.90;;;;;;5094904;28;20480;-79
2022/06/15 01:35:33;;;;;;;4.65;1.80;;;13.10;99.90;;;;;;5095523;28;20441;-78
2022/06/15 01:38:26;;;;;;;3.75;2.00;;;13.10;99.90;;;;;;5095014;28;20044;-78
2022/06/15 01:41:15;;;;;;;3.38;1.90;;;13.00;99.90;;;;;;5094412;28;20044;-78
2022/06/15 01:43:55;;;;;;;3.80;1.95;;;13.00;99.90;;;;;;5094940;28;20050;-79
2022/06/15 01:46:22;;;;;;;3.63;1.85;;;13.00;99.90;;;;;;5094686;28;20484;-79
2022/06/15 01:48:51;;;;;;;3.72;2.20;;;13.00;99.90;;;;;;5094912;28;20094;-79
2022/06/15 01:51:21;;;;;;;5.35;2.00;;;13.00;99.90;;;;;;5094868;28;20056;-79
2022/06/15 01:53:55;;;;;;;4.28;2.10;;;13.00;99.90;;;;;;5094698;28;20056;-79
2022/06/15 01:56:35;;;;;;;3.45;2.03;;;12.90;99.90;;;;;;5095335;28;20102;-79
2022/06/15 01:59:16;;;;;;;4.00;2.15;;;12.90;99.90;;;;;;5095077;28;20054;-79
2022/06/15 02:02:03;;;;;;;5.18;1.95;;;12.80;99.90;;;;;;5095268;28;20109;-79
2022/06/15 02:04:45;;;;;;;3.75;2.05;;;12.80;99.90;;;;;;5093941;28;20138;-80
2022/06/15 02:07:17;;;;;;;4.60;1.80;;;12.80;99.90;;;;;;5094604;28;20048;-79
2022/06/15 02:10:24;;;;;;;5.47;2.33;;;12.80;99.90;;;;;;5094546;28;20035;-79
2022/06/15 02:13:10;;;;;;;2.90;1.70;;;12.80;99.90;;;;;;5092652;28;20056;-79
2022/06/15 02:15:38;;;;;;;3.05;1.77;;;12.80;99.90;;;;;;5093304;28;20044;-79
2022/06/15 02:18:08;;;;;;;2.92;1.52;;;12.70;99.90;;;;;;5094378;28;20060;-79
2022/06/15 02:20:38;;;;;;;2.55;1.85;;;12.70;99.90;;;;;;5093899;28;20044;-79
2022/06/15 02:23:08;;;;;;;2.83;1.88;;;12.60;99.90;;;;;;5093233;28;20508;-79
2022/06/15 02:25:37;;;;;;;4.15;1.80;;;12.60;99.90;;;;;;5094932;28;20044;-79
2022/06/15 02:28:04;;;;;;;3.15;1.70;;;12.60;99.90;;;;;;5092936;28;20079;-79
2022/06/15 02:30:31;;;;;;;3.20;1.90;;;12.60;99.90;;;;;;5093168;28;20083;-79
2022/06/15 02:33:03;;;;;;;4.60;1.88;;;12.50;99.90;;;;;;5094103;28;20048;-79
2022/06/15 02:35:28;;;;;;;4.63;1.63;;;12.50;99.90;;;;;;5094275;28;20491;-79
2022/06/15 02:37:54;;;;;;;3.47;2.10;;;12.50;99.90;;;;;;5092959;28;20358;-78
2022/06/15 02:40:22;;;;;;;4.15;1.70;;;12.40;99.90;;;;;;5093103;28;20387;-78
2022/06/15 02:42:49;;;;;;;3.15;1.63;;;12.40;99.90;;;;;;5094015;28;20098;-79
2022/06/15 02:45:26;;;;;;;2.95;1.90;;;12.40;99.90;;;;;;5093510;28;20391;-79
2022/06/15 02:47:52;;;;;;;2.60;1.90;;;12.30;99.90;;;;;;5094030;28;20067;-79
2022/06/15 02:50:21;;;;;;;3.38;1.80;;;12.30;99.90;;;;;;5093891;28;20043;-79
2022/06/15 02:53:11;;;;;;;4.82;2.05;;;12.30;99.90;;;;;;5093393;28;20398;-78
2022/06/15 02:55:38;;;;;;;2.78;1.65;;;12.30;99.90;;;;;;5093736;28;20076;-79
2022/06/15 02:58:27;;;;;;;3.15;1.77;;;12.20;99.90;;;;;;5092795;28;20044;-79
2022/06/15 03:00:54;;;;;;;4.68;1.98;;;12.20;99.90;;;;;;5093797;28;20044;-79
2022/06/15 03:03:22;;;;;;;2.80;1.65;;;12.20;99.90;;;;;;5093737;28;20080;-79
2022/06/15 03:05:49;;;;;;;2.35;1.70;;;12.20;99.90;;;;;;5093688;28;20044;-80
2022/06/15 03:08:15;;;;;;;3.92;1.85;;;12.20;99.90;;;;;;5093593;28;20044;-79
2022/06/15 03:10:41;;;;;;;3.45;1.85;;;12.20;99.90;;;;;;5092979;28;20396;-79
2022/06/15 03:13:07;;;;;;;3.83;1.95;;;12.20;99.90;;;;;;5093567;28;20044;-79
2022/06/15 03:15:34;;;;;;;3.60;2.00;;;12.20;99.90;;;;;;5093144;28;20387;-79
2022/06/15 03:18:00;;;;;;;3.78;1.90;;;12.10;99.90;;;;;;5093631;28;20054;-79
2022/06/15 03:20:25;;;;;;;4.25;2.05;;;12.10;99.90;;;;;;5093164;28;20052;-79
2022/06/15 03:22:51;;;;;;;3.00;1.95;;;12.10;99.90;;;;;;5093493;28;20055;-79
2022/06/15 03:25:18;;;;;;;4.25;2.20;;;12.20;99.90;;;;;;5075624;28;20097;-79
2022/06/15 03:27:44;;;;;;;3.22;2.30;;;12.10;99.90;;;;;;5097098;28;20059;-79
2022/06/15 03:30:11;;;;;;;5.03;2.70;;;12.10;99.90;;;;;;5097005;28;20044;-79
2022/06/15 03:32:37;;;;;;;5.30;2.50;;;12.10;99.90;;;;;;5097615;28;20083;-79
2022/06/15 03:35:04;;;;;;;4.00;1.90;;;12.10;99.90;;;;;;5097426;28;20129;-79
2022/06/15 03:37:30;;;;;;;3.95;2.45;;;12.10;99.90;;;;;;5097469;28;20372;-79
2022/06/15 03:39:56;;;;;;;4.05;2.67;;;12.10;99.90;;;;;;5097365;28;20091;-79
2022/06/15 03:42:23;;;;;;;4.68;2.88;;;12.10;99.90;;;;;;5097004;28;20044;-78
2022/06/15 03:44:51;;;;;;;6.28;3.08;;;12.10;99.90;;;;;;5095915;28;20095;-79
2022/06/15 03:47:20;;;;;;;5.63;2.60;;;12.20;99.90;;;;;;5097321;28;20444;-79
2022/06/15 03:49:50;;;;;;;5.78;3.45;;;12.20;99.90;;;;;;5097530;28;20101;-79
2022/06/15 03:52:24;;;;;;;4.60;2.67;;;12.20;99.90;;;;;;5097380;28;20091;-79
2022/06/15 03:54:50;;;;;;;5.03;2.67;;;12.30;99.90;;;;;;5096687;28;20056;-79
2022/06/15 03:57:18;;;;;;;5.18;2.58;;;12.40;99.90;;;;;;5097155;28;20423;-79
2022/06/15 03:59:45;;;;;;;7.00;2.63;;;12.40;99.90;;;;;;5095556;28;20480;-80
2022/06/15 04:02:11;;;;;;;3.40;2.50;;;12.50;99.90;;;;;;5096175;28;20040;-80
2022/06/15 04:04:37;;;;;;;5.35;2.35;;;12.50;99.90;;;;;;5095649;28;20062;-80
2022/06/15 04:07:04;;;;;;;4.57;2.30;;;12.60;99.90;;;;;;5096951;28;20048;-80
2022/06/15 04:09:31;;;;;;;5.47;2.75;;;12.70;99.90;;;;;;5097168;28;20067;-80
2022/06/15 04:12:08;;;;;;;4.40;2.53;;;12.70;99.90;;;;;;5095713;28;20052;-80
2022/06/15 04:14:34;;;;;;;3.95;2.20;;;12.80;99.90;;;;;;5096634;28;20044;-81
2022/06/15 04:17:01;;;;;;;4.95;2.55;;;12.90;99.90;;;;;;5096188;28;20476;-81
2022/06/15 04:19:30;;;;;;;5.57;2.60;;;12.90;99.90;;;;;;5096596;28;20051;-80
2022/06/15 04:21:56;;;;;;;4.13;2.10;;;13.00;99.90;;;;;;5096254;28;20511;-80
2022/06/15 04:24:25;;;;;;;4.97;2.28;;;13.00;99.90;;;;;;5096540;28;20086;-81
2022/06/15 04:26:51;;;;;;;7.93;2.28;;;13.10;99.90;;;;;;5095542;28;20048;-80
2022/06/15 04:29:18;;;;;;;3.63;1.70;;;13.20;99.90;;;;;;5096464;28;20050;-80
2022/06/15 04:31:44;;;;;;;3.25;1.92;;;13.20;99.90;;;;;;5095817;28;20086;-80
2022/06/15 04:34:10;;;;;;;4.25;1.98;;;13.30;99.90;;;;;;5096306;28;20079;-80
2022/06/15 04:36:38;;;;;;;4.38;2.10;;;13.30;99.90;;;;;;5095534;28;20056;-80
2022/06/15 04:39:05;;;;;;;3.47;1.70;;;13.40;99.90;;;;;;5095391;28;20403;-79
2022/06/15 04:41:32;;;;;;;3.13;1.85;;;13.50;99.90;;;;;;5096252;28;20043;-80
2022/06/15 04:43:59;;;;;;;3.42;1.73;;;13.50;99.90;;;;;;5095014;28;20040;-79
2022/06/15 04:46:24;;;;;;;4.22;1.85;;;13.50;99.90;;;;;;5095593;28;20107;-80
2022/06/15 04:48:50;;;;;;;3.75;1.73;;;13.60;99.90;;;;;;5095738;28;20036;-80
2022/06/15 04:51:22;;;;;;;3.70;1.83;;;13.60;99.90;;;;;;5096221;28;20048;-80
2022/06/15 04:53:49;;;;;;;2.90;1.55;;;13.70;99.90;;;;;;5095562;28;20059;-80
2022/06/15 04:56:16;;;;;;;3.63;1.35;;;13.70;99.90;;;;;;5094771;28;20056;-80
2022/06/15 04:58:43;;;;;;;3.40;1.63;;;13.80;99.90;;;;;;5096001;28;20441;-80
2022/06/15 05:01:12;;;;;;;4.13;1.65;;;13.90;99.90;;;;;;5095899;28;20092;-80
2022/06/15 05:03:38;;;;;;;3.47;1.73;;;13.90;99.90;;;;;;5095903;28;20051;-80
2022/06/15 05:06:09;;;;;;;3.47;2.00;;;14.00;99.90;;;;;;5095863;28;20043;-80
2022/06/15 05:08:35;;;;;;;4.57;1.80;;;14.00;99.90;;;;;;5094989;28;20432;-81
2022/06/15 05:11:01;;;;;;;4.50;1.65;;;14.10;99.90;;;;;;5095758;28;20079;-80
2022/06/15 05:13:27;;;;;;;4.32;1.30;;;14.20;99.90;;;;;;5095558;28;20472;-80
2022/06/15 05:15:53;;;;;;;4.18;1.45;;;14.20;99.90;;;;;;5095099;28;20075;-79
2022/06/15 05:18:18;;;;;;;2.28;1.50;;;14.30;99.90;;;;;;5077655;28;20080;-79
2022/06/15 05:20:44;;;;;;;2.88;1.23;;;14.30;99.90;;;;;;5095430;28;20047;-80
2022/06/15 05:23:15;;;;;;;4.85;1.45;;;14.30;99.90;;;;;;5095521;28;20126;-80
2022/06/15 05:25:42;;;;;;;4.55;1.40;;;14.40;99.90;;;;;;5094613;28;20131;-80
2022/06/15 05:28:08;;;;;;;2.40;1.17;;;14.40;99.90;;;;;;5095312;28;20100;-79
2022/06/15 05:30:35;;;;;;;3.05;1.30;;;14.50;99.90;;;;;;5096147;28;20063;-79
2022/06/15 05:33:01;;;;;;;2.55;1.42;;;14.50;99.90;;;;;;5094747;28;20112;-80
2022/06/15 05:35:27;;;;;;;3.42;1.25;;;14.60;99.90;;;;;;5093970;28;20084;-80
2022/06/15 05:37:53;;;;;;;3.47;1.50;;;14.60;99.90;;;;;;5095181;28;20079;-80
2022/06/15 05:40:19;;;;;;;2.88;1.13;;;14.70;99.90;;;;;;5094218;28;20539;-79
2022/06/15 05:42:44;;;;;;;3.22;1.00;;;14.70;99.90;;;;;;5095444;28;20055;-79
2022/06/15 05:45:10;;;;;;;3.65;1.20;;;14.80;99.90;;;;;;5076291;28;20098;-79
2022/06/15 05:47:36;;;;;;;4.30;1.20;;;14.80;99.90;;;;;;5077135;28;20484;-79
2022/06/15 05:50:02;;;;;;;3.03;1.20;;;14.80;99.90;;;;;;5093799;28;20076;-79
2022/06/15 05:52:28;;;;;;;3.38;1.15;;;14.80;99.90;;;;;;5094877;28;20070;-79
2022/06/15 05:54:55;;;;;;;4.53;1.40;;;14.80;99.90;;;;;;5094245;28;20048;-80
2022/06/15 05:57:23;;;;;;;2.45;1.40;;;14.80;99.90;;;;;;5094853;28;20120;-79
2022/06/15 05:59:50;;;;;;;4.20;2.33;;;14.90;99.90;;;;;;5093775;28;20044;-79
2022/06/15 06:02:18;;;;;;;3.65;2.20;;;14.90;99.90;;;;;;5094698;28;20091;-79
2022/06/15 06:04:44;;;;;;;7.07;3.10;;;14.90;99.90;;;;;;5094671;28;20046;-80
2022/06/15 06:07:10;;;;;;;6.43;3.17;;;14.90;99.90;;;;;;5094288;28;20126;-78
2022/06/15 06:09:37;;;;;;;6.05;3.42;;;14.90;99.90;;;;;;5094779;28;20090;-79
2022/06/15 06:12:03;;;;;;;6.57;3.05;;;14.90;99.90;;;;;;5093208;28;20051;-79
2022/06/15 06:14:29;;;;;;;7.50;2.65;;;14.90;99.90;;;;;;5093848;28;20048;-79
2022/06/15 06:16:55;;;;;;;6.40;2.67;;;14.90;99.90;;;;;;5093552;28;20557;-79
2022/06/15 06:19:21;;;;;;;5.80;2.55;;;14.90;99.90;;;;;;5094306;28;20441;-79
2022/06/15 06:21:46;;;;;;;6.18;2.30;;;14.90;99.90;;;;;;5094577;28;20476;-79
2022/06/15 06:24:12;;;;;;;4.57;1.90;;;15.00;99.90;;;;;;5094422;28;20040;-79
2022/06/15 06:26:38;;;;;;;3.65;1.95;;;15.00;99.90;;;;;;5093120;28;20419;-78
2022/06/15 06:29:05;;;;;;;5.15;2.67;;;15.10;99.90;;;;;;5094179;28;20055;-77
2022/06/15 06:31:32;;;;;;;5.78;3.47;;;15.20;99.90;;;;;;5093151;28;20051;-78
2022/06/15 06:33:58;;;;;;;6.93;3.60;;;15.30;99.90;;;;;;5093033;28;20048;-79
2022/06/15 06:36:29;;;;;;;3.72;2.60;;;15.30;99.90;;;;;;5093016;28;20044;-78
2022/06/15 06:38:55;;;;;;;4.57;1.90;;;15.40;99.90;;;;;;5094370;28;20047;-79
2022/06/15 06:41:24;;;;;;;4.65;1.63;;;15.50;99.90;;;;;;5093000;28;20129;-79
2022/06/15 06:43:50;;;;;;;4.85;1.60;;;15.50;99.90;;;;;;5093913;28;20123;-79
2022/06/15 06:46:16;;;;;;;3.50;1.90;;;15.60;99.90;;;;;;5093379;28;20070;-79
2022/06/15 06:48:42;;;;;;;3.30;1.40;;;15.70;99.90;;;;;;5093685;28;20048;-79
2022/06/15 06:51:08;;;;;;;4.28;1.60;;;15.80;99.90;;;;;;5092529;28;20117;-79
2022/06/15 06:53:35;;;;;;;3.33;1.63;;;15.90;99.90;;;;;;5092888;28;20478;-79
2022/06/15 06:56:04;;;;;;;4.18;1.60;;;15.90;99.90;;;;;;5093757;28;20396;-77
2022/06/15 06:58:30;;;;;;;3.53;1.52;;;16.00;99.90;;;;;;5094188;28;20046;-77
2022/06/15 07:00:56;;;;;;;3.97;1.67;;;16.00;99.90;;;;;;5093296;28;20420;-78
2022/06/15 07:03:22;;;;;;;3.45;1.50;;;16.00;99.90;;;;;;5093733;28;20040;-79
2022/06/15 07:05:48;;;;;;;5.45;1.65;;;16.00;99.90;;;;;;5093741;28;20051;-79
2022/06/15 07:08:15;;;;;;;4.30;1.45;;;16.00;99.90;;;;;;5093639;28;20040;-80
2022/06/15 07:10:42;;;;;;;2.85;1.50;;;16.00;99.90;;;;;;5093788;28;20066;-80
2022/06/15 07:13:08;;;;;;;3.53;1.30;;;16.10;99.90;;;;;;5093746;28;20058;-80
2022/06/15 07:15:34;;;;;;;5.00;1.48;;;16.10;99.90;;;;;;5092978;28;20127;-80
2022/06/15 07:18:01;;;;;;;5.32;1.42;;;16.20;99.90;;;;;;5093532;28;20043;-80
2022/06/15 07:20:28;;;;;;;3.92;1.50;;;16.20;99.90;;;;;;5093645;28;20051;-77
2022/06/15 07:22:54;;;;;;;2.95;1.17;;;16.20;99.90;;;;;;5093678;28;20504;-78
2022/06/15 07:25:21;;;;;;;3.83;1.83;;;16.30;99.90;;;;;;5093640;28;20048;-79
2022/06/15 07:27:47;;;;;;;3.00;1.27;;;16.40;99.90;;;;;;5092647;28;20043;-78
2022/06/15 07:30:17;;;;;;;4.75;1.85;;;16.40;99.90;;;;;;5093573;28;20093;-77
2022/06/15 07:32:44;;;;;;;5.43;2.00;;;16.60;99.90;;;;;;5093249;28;20450;-77
2022/06/15 07:35:16;;;;;;;5.13;2.00;;;16.70;99.90;;;;;;5093480;28;20081;-78
2022/06/15 07:37:42;;;;;;;4.82;1.52;;;16.70;99.90;;;;;;5092279;28;20056;-82
2022/06/15 07:40:09;;;;;;;4.35;1.70;;;16.80;99.90;;;;;;5093461;28;20044;-84
2022/06/15 07:42:34;;;;;;;4.93;1.67;;;16.80;99.90;;;;;;5094159;28;20048;-80
2022/06/15 07:45:00;;;;;;;4.22;1.40;;;16.80;99.90;;;;;;5092025;28;20116;-77
2022/06/15 07:50:11;;;;;;;2.45;1.25;;;16.90;99.90;;;;;;5093567;28;20056;-81
2022/06/15 07:52:40;;;;;;;5.80;1.30;;;16.90;99.90;;;;;;5093377;28;20044;-81
2022/06/15 07:55:09;;;;;;;2.65;1.10;;;16.90;99.90;;;;;;5091911;28;20102;-80
2022/06/15 07:57:36;;;;;;;4.55;1.10;;;17.00;99.90;;;;;;5093312;28;20040;-81
2022/06/15 08:00:04;;;;;;;5.22;1.30;;;17.00;99.90;;;;;;5093704;28;20369;-81
2022/06/15 08:02:30;;;;;;;3.22;1.00;;;17.10;99.90;;;;;;5092323;28;20047;-82
2022/06/15 08:04:56;;;;;;;3.75;1.67;;;17.20;99.90;;;;;;5093344;28;20047;-83
2022/06/15 08:07:22;;;;;;;2.60;1.30;;;17.30;99.90;;;;;;5093584;28;20051;-79
2022/06/15 08:09:48;;;;;;;2.90;1.00;;;17.50;99.90;;;;;;5091652;28;20044;-80
2022/06/15 08:12:19;;;;;;;3.10;1.30;;;17.60;99.90;;;;;;5092790;28;20135;-78
2022/06/15 08:14:55;;;;;;;3.90;1.33;;;17.70;99.90;;;;;;5093386;28;20079;-77
2022/06/15 08:17:41;;;;;;;4.35;1.70;;;17.70;99.90;;;;;;5093815;28;20051;-79
2022/06/15 08:20:21;;;;;;;4.35;1.52;;;17.80;99.90;;;;;;5093335;28;20138;-78
2022/06/15 08:22:51;;;;;;;4.45;1.30;;;17.80;99.90;;;;;;5094298;28;20590;-78
2022/06/15 08:25:24;;;;;;;3.42;1.00;;;17.80;99.90;;;;;;5095100;28;20039;-78
2022/06/15 08:27:50;;;;;;;4.57;1.95;;;17.80;99.90;;;;;;5096387;28;20408;-78
2022/06/15 08:30:16;;;;;;;5.70;2.15;;;17.80;99.90;;;;;;5094798;28;20480;-81
2022/06/15 08:32:42;;;;;;;3.40;1.40;;;17.80;99.90;;;;;;5096071;28;20119;-79
2022/06/15 08:35:09;;;;;;;3.28;2.55;;;17.80;99.90;;;;;;5095985;28;20043;-79
2022/06/15 08:37:36;;;;;;;8.07;3.15;;;17.80;99.90;;;;;;5096079;28;20051;-78
2022/06/15 08:40:02;;;;;;;3.45;1.83;;;17.80;99.90;;;;;;5093430;28;20044;-78
2022/06/15 08:42:50;;;;;;;4.47;1.95;;;17.90;99.90;;;;;;5095927;28;20044;-76
2022/06/15 08:45:47;;;;;;;3.92;1.80;;;18.00;99.90;;;;;;5093665;28;20044;-76
2022/06/15 08:48:26;;;;;;;4.20;1.85;;;18.10;99.90;;;;;;5094925;28;20102;-77
2022/06/15 08:51:09;;;;;;;3.78;1.40;;;18.10;99.90;;;;;;5094806;28;20040;-81
2022/06/15 08:53:46;;;;;;;4.28;1.20;;;18.10;99.90;;;;;;5094883;28;20137;-79
2022/06/15 08:56:46;;;;;;;6.30;2.20;;;18.00;99.90;;;;;;5094668;28;20373;-78
2022/06/15 08:59:39;;;;;;;4.32;2.17;;;18.00;99.90;;;;;;5093863;28;20052;-78
2022/06/15 09:02:16;;;;;;;5.07;2.15;;;18.00;99.90;;;;;;5093495;28;20393;-77
2022/06/15 09:04:57;;;;;;;5.13;2.00;;;18.00;99.90;;;;;;5092989;28;20044;-79
2022/06/15 09:07:35;;;;;;;3.95;1.77;;;18.10;99.90;;;;;;5093215;28;20040;-78
2022/06/15 09:10:28;;;;;;;2.20;1.13;;;18.10;99.90;;;;;;5092623;28;20052;-79
2022/06/15 09:13:36;;;;;;;1.83;0.82;;;18.20;99.90;;;;;;5094548;28;20089;-79
2022/06/15 09:16:29;;;;;;;3.95;1.58;;;18.20;99.90;;;;;;5092411;28;20042;-78
2022/06/15 09:19:20;;;;;;;5.32;2.75;;;18.40;99.90;;;;;;5094288;28;20083;-78
2022/06/15 09:21:57;;;;;;;3.00;2.15;;;18.50;99.90;;;;;;5095224;28;20052;-78
2022/06/15 09:24:48;;;;;;;5.93;3.35;;;18.50;99.90;;;;;;5092496;28;20115;-80
2022/06/15 09:27:44;;;;;;;6.00;3.80;;;18.40;99.90;;;;;;5092382;28;20065;-77
2022/06/15 09:30:18;;;;;;;5.00;1.83;;;18.20;99.90;;;;;;5067504;28;20060;-77
2022/06/15 09:32:52;;;;;;;3.85;1.30;;;18.20;99.90;;;;;;5091679;28;20123;-78
2022/06/15 09:35:27;;;;;;;5.05;1.83;;;18.10;99.90;;;;;;5093612;28;20062;-76
2022/06/15 09:37:56;;;;;;;2.60;1.20;;;18.10;99.90;;;;;;5094981;28;20040;-71
2022/06/15 09:40:34;;;;;;;2.67;1.10;;;18.10;99.90;;;;;;5092197;28;20104;-71
2022/06/15 09:43:22;;;;;;;2.33;1.20;;;18.00;99.90;;;;;;5094756;28;20050;-71
2022/06/15 09:46:01;;;;;;;2.53;1.20;;;18.10;99.90;;;;;;5092503;28;20032;-71
2022/06/15 09:48:52;;;;;;;3.47;1.20;;;18.20;99.90;;;;;;5091610;28;20052;-72
2022/06/15 09:51:33;;;;;;;3.35;1.30;;;18.40;99.90;;;;;;5094097;28;20040;-72
2022/06/15 09:54:17;;;;;;;2.45;1.20;;;18.50;99.90;;;;;;5094288;28;20484;-71
2022/06/15 09:56:43;;;;;;;4.00;1.40;;;18.60;99.90;;;;;;5092072;28;20048;-72
2022/06/15 09:59:14;;;;;;;2.83;0.77;;;18.70;99.90;;;;;;5094513;28;20117;-71
2022/06/15 10:01:45;;;;;;;4.93;0.90;;;18.90;99.90;;;;;;5094404;28;20040;-71
2022/06/15 10:04:27;;;;;;;2.78;0.80;;;19.00;99.90;;;;;;5094460;28;20482;-72
2022/06/15 10:07:04;;;;;;;11.20;1.55;;;19.10;99.90;;;;;;5092411;28;20048;-73
2022/06/15 10:09:34;;;;;;;1.75;0.68;;;19.20;99.90;;;;;;5091709;28;20469;-77
2022/06/15 10:15:11;;;;;;;3.40;0.80;;;19.40;99.90;;;;;;5088315;28;20105;-76
2022/06/15 10:17:41;;;;;;;4.43;0.95;;;19.50;99.90;;;;;;5091518;28;20052;-76
2022/06/15 10:20:32;;;;;;;3.28;0.80;;;19.60;99.90;;;;;;5093263;28;20040;-75
2022/06/15 10:23:01;;;;;;;3.22;0.80;;;19.70;99.90;;;;;;5092532;28;20432;-77
2022/06/15 10:25:31;;;;;;;3.58;0.90;;;19.80;99.90;;;;;;5092979;28;20062;-74
2022/06/15 10:28:16;;;;;;;1.27;0.70;;;19.80;99.90;;;;;;5087422;28;20506;-74
2022/06/15 10:30:58;;;;;;;2.55;1.13;;;19.80;99.20;;;;;;5083315;28;20121;-76
2022/06/15 10:33:24;;;;;;;2.15;0.95;;;19.90;98.80;;;;;;5085729;28;20123;-76
2022/06/15 10:35:58;;;;;;;2.22;1.10;;;19.90;98.60;;;;;;5085673;28;20056;-76
2022/06/15 10:38:27;;;;;;;4.25;1.20;;;20.00;99.00;;;;;;5086596;28;20456;-77
2022/06/15 10:43:48;;;;;;;3.05;1.77;;;20.10;99.30;;;;;;5084282;28;20043;-77
2022/06/15 10:46:15;;;;;;;1.77;1.20;;;20.10;99.90;;;;;;5083483;28;20043;-77
2022/06/15 10:48:49;;;;;;;4.47;1.27;;;20.10;99.90;;;;;;5087087;28;20044;-77
2022/06/15 10:51:28;;;;;;;5.65;1.40;;;20.20;99.90;;;;;;5088425;28;20528;-77
2022/06/15 10:54:18;;;;;;;2.05;1.40;;;20.20;99.20;;;;;;5080497;28;20061;-77
2022/06/15 11:02:47;;;;;;;2.90;1.15;;;20.00;98.00;;;;;;5081454;28;20514;-77
2022/06/15 11:05:20;;;;;;;2.05;1.42;;;20.00;98.60;;;;;;5076249;28;20368;-78
2022/06/15 11:07:47;;;;;;;1.60;1.23;;;20.10;96.80;;;;;;5082906;28;20052;-77
2022/06/15 11:10:39;;;;;;;3.63;1.50;;;20.10;95.80;;;;;;5089787;28;20044;-76
2022/06/15 11:13:34;;;;;;;3.10;1.40;;;20.00;96.10;;;;;;5086973;28;20108;-76
2022/06/15 11:19:13;;;;;;;5.07;1.92;;;19.90;97.10;;;;;;5086567;28;20044;-76
2022/06/15 11:21:52;;;;;;;5.30;2.05;;;19.80;96.40;;;;;;5080289;28;20044;-76
2022/06/15 11:24:35;;;;;;;3.53;1.33;;;19.80;96.40;;;;;;5083458;28;20046;-77
2022/06/15 11:27:19;;;;;;;3.38;1.27;;;19.70;97.20;;;;;;5061441;28;20640;-78
2022/06/15 11:29:52;;;;;;;3.70;1.40;;;19.50;97.90;;;;;;5082278;28;20377;-79
2022/06/15 11:32:35;;;;;;;3.40;2.13;;;19.50;98.00;;;;;;5084276;28;20100;-78
2022/06/15 11:35:07;;;;;;;2.17;1.70;;;19.50;96.50;;;;;;5084923;28;20455;-77
2022/06/15 11:38:02;;;;;;;2.40;1.10;;;19.40;96.20;;;;;;5084330;28;20045;-78
2022/06/15 11:40:55;;;;;;;4.03;1.80;;;19.30;97.30;;;;;;5061126;28;20475;-77
2022/06/15 11:43:36;;;;;;;3.47;1.87;;;19.30;97.80;;;;;;5071550;28;20052;-77
2022/06/15 11:46:11;;;;;;;5.70;2.30;;;19.30;96.40;;;;;;5082845;28;20051;-76
2022/06/15 11:48:44;;;;;;;2.90;2.08;;;19.30;96.20;;;;;;5089646;28;20055;-76
2022/06/15 11:51:26;;;;;;;3.80;2.40;;;19.20;96.50;;;;;;5090912;28;20047;-77
2022/06/15 11:54:11;;;;;;;2.63;2.37;;;19.20;96.50;;;;;;5085872;28;20052;-76
2022/06/15 11:56:57;;;;;;;3.70;2.47;;;19.30;97.10;;;;;;5088381;28;20407;-76
2022/06/15 11:59:30;;;;;;;1.88;1.40;;;19.50;97.90;;;;;;5088381;28;20078;-77
2022/06/15 12:02:08;;;;;;;3.45;1.67;;;19.60;97.40;;;;;;5089940;28;20044;-75
2022/06/15 12:04:46;;;;;;;2.90;2.08;;;19.60;97.20;;;;;;5089190;28;20384;-77
2022/06/15 12:07:27;;;;;;;3.70;2.10;;;19.60;96.60;;;;;;5084776;28;20131;-76
2022/06/15 12:09:59;;;;;;;2.75;1.50;;;19.60;97.60;;;;;;5088899;28;20040;-77
2022/06/15 12:12:39;;;;;;;4.05;1.77;;;19.60;98.50;;;;;;5087756;28;20077;-77
2022/06/15 12:15:45;;;;;;;5.03;1.55;;;19.60;99.40;;;;;;5085164;28;20475;-77
2022/06/15 12:18:18;;;;;;;5.38;1.65;;;19.60;99.40;;;;;;5089676;28;20046;-77
2022/06/15 12:21:05;;;;;;;3.20;1.55;;;19.60;99.50;;;;;;5088462;28;20539;-77
2022/06/15 12:23:56;;;;;;;6.53;1.80;;;19.50;99.80;;;;;;5094310;28;20036;-77
2022/06/15 12:26:50;;;;;;;3.30;1.77;;;19.40;99.30;;;;;;5093482;28;20047;-77
2022/06/15 12:29:29;;;;;;;3.67;1.50;;;19.30;99.50;;;;;;5094285;28;20076;-77
2022/06/15 12:32:38;;;;;;;3.40;1.15;;;19.30;99.80;;;;;;5095203;28;20044;-77
2022/06/15 12:35:27;;;;;;;3.08;1.20;;;19.30;99.90;;;;;;5092232;28;20040;-78
2022/06/15 12:38:13;;;;;;;3.90;1.60;;;19.50;99.90;;;;;;5094845;28;20044;-76
2022/06/15 12:40:46;;;;;;;2.38;1.13;;;19.60;99.50;;;;;;5095491;28;20048;-76
2022/06/15 12:43:21;;;;;;;3.75;1.42;;;19.70;99.30;;;;;;5096028;28;20056;-76
2022/06/15 12:45:52;;;;;;;2.65;1.10;;;19.80;99.20;;;;;;5075592;28;20040;-76
2022/06/15 12:48:42;;;;;;;2.30;1.27;;;19.80;99.10;;;;;;5095834;28;20056;-76
2022/06/15 12:51:39;;;;;;;3.00;1.40;;;19.80;98.60;;;;;;5092975;28;20048;-76
2022/06/15 12:54:42;;;;;;;4.30;1.50;;;19.90;98.90;;;;;;5093084;28;20102;-75
2022/06/15 12:57:37;;;;;;;3.28;1.50;;;20.00;98.90;;;;;;5092723;28;20059;-75
2022/06/15 13:00:07;;;;;;;2.13;1.30;;;20.10;98.40;;;;;;5088147;28;20047;-75
2022/06/15 13:02:45;;;;;;;4.18;1.30;;;20.10;97.50;;;;;;5095556;28;20036;-75
2022/06/15 13:05:25;;;;;;;5.18;1.20;;;20.10;97.20;;;;;;5127114;27;20101;-76
2022/06/15 13:08:22;;;;;;;4.10;1.40;;;20.20;96.90;;;;;;5093980;28;20036;-75
2022/06/15 13:10:54;;;;;;;1.73;1.30;;;20.20;97.30;;;;;;5093370;28;20066;-75
2022/06/15 13:13:50;;;;;;;4.63;1.77;;;20.30;97.10;;;;;;5095297;28;20086;-75
2022/06/15 13:16:33;;;;;;;3.83;1.55;;;20.40;97.30;;;;;;5076273;28;20060;-75
2022/06/15 13:18:59;;;;;;;3.35;1.60;;;20.30;96.60;;;;;;5094719;28;20051;-75
2022/06/15 13:21:48;;;;;;;2.40;1.40;;;20.40;96.40;;;;;;5095175;28;20058;-76
2022/06/15 13:24:14;;;;;;;3.42;1.45;;;20.40;95.90;;;;;;5093526;28;20040;-72
2022/06/15 13:26:41;;;;;;;3.10;1.52;;;20.30;96.30;;;;;;5094978;28;20044;-75
2022/06/15 13:29:10;;;;;;;4.70;1.88;;;20.40;96.80;;;;;;5094129;28;20488;-75
2022/06/15 13:31:45;;;;;;;3.95;1.90;;;20.40;96.80;;;;;;5094963;28;20086;-75
2022/06/15 13:34:16;;;;;;;3.28;1.67;;;20.50;96.40;;;;;;5093214;28;20043;-76
2022/06/15 13:37:02;;;;;;;2.35;1.30;;;20.50;96.10;;;;;;5094782;28;20078;-76